sensor_id;sensor_type;location;lat;lon;timestamp;temperature;humidity
64888;DHT22;51386;53.082;8.816;2022-11-20T00:00:54;5.00;70.90
64888;DHT22;51386;53.082;8.816;2022-11-20T00:03:23;4.90;71.80
64888;DHT22;51386;53.082;8.816;2022-11-20T00:05:50;4.90;72.40
64888;DHT22;51386;53.082;8.816;2022-11-20T00:08:17;4.90;72.90
64888;DHT22;51386;53.082;8.816;2022-11-20T00:10:44;4.90;73.00
64888;DHT22;51386;53.082;8.816;2022-11-20T00:13:11;4.90;72.70
64888;DHT22;51386;53.082;8.816;2022-11-20T00:15:38;4.90;72.70
64888;DHT22;51386;53.082;8.816;2022-11-20T00:18:05;4.90;72.80
64888;DHT22;51386;53.082;8.816;2022-11-20T00:20:33;4.90;72.50
64888;DHT22;51386;53.082;8.816;2022-11-20T00:23:00;4.90;72.70
64888;DHT22;51386;53.082;8.816;2022-11-20T00:25:27;4.90;72.80
64888;DHT22;51386;53.082;8.816;2022-11-20T00:27:54;4.90;72.70
64888;DHT22;51386;53.082;8.816;2022-11-20T00:30:21;5.00;72.50
64888;DHT22;51386;53.082;8.816;2022-11-20T00:32:48;5.00;72.40
64888;DHT22;51386;53.082;8.816;2022-11-20T00:35:15;5.00;72.40
64888;DHT22;51386;53.082;8.816;2022-11-20T00:37:43;5.00;72.40
64888;DHT22;51386;53.082;8.816;2022-11-20T00:40:11;4.90;72.60
64888;DHT22;51386;53.082;8.816;2022-11-20T00:42:40;4.90;72.50
64888;DHT22;51386;53.082;8.816;2022-11-20T00:45:07;4.90;72.60
64888;DHT22;51386;53.082;8.816;2022-11-20T00:47:34;4.90;72.80
64888;DHT22;51386;53.082;8.816;2022-11-20T00:50:01;4.90;72.90
64888;DHT22;51386;53.082;8.816;2022-11-20T00:52:29;4.90;73.40
64888;DHT22;51386;53.082;8.816;2022-11-20T00:54:57;4.90;74.50
64888;DHT22;51386;53.082;8.816;2022-11-20T00:57:24;4.90;74.40
64888;DHT22;51386;53.082;8.816;2022-11-20T00:59:51;4.90;74.40
64888;DHT22;51386;53.082;8.816;2022-11-20T01:02:18;5.00;75.00
64888;DHT22;51386;53.082;8.816;2022-11-20T01:04:45;5.10;75.20
64888;DHT22;51386;53.082;8.816;2022-11-20T01:07:12;5.10;74.40
64888;DHT22;51386;53.082;8.816;2022-11-20T01:09:39;5.20;74.10
64888;DHT22;51386;53.082;8.816;2022-11-20T01:12:07;5.20;73.60
64888;DHT22;51386;53.082;8.816;2022-11-20T01:14:34;5.20;73.40
64888;DHT22;51386;53.082;8.816;2022-11-20T01:17:01;5.20;73.40
64888;DHT22;51386;53.082;8.816;2022-11-20T01:19:28;5.10;73.10
64888;DHT22;51386;53.082;8.816;2022-11-20T01:21:55;5.10;73.30
64888;DHT22;51386;53.082;8.816;2022-11-20T01:24:22;5.00;73.30
64888;DHT22;51386;53.082;8.816;2022-11-20T01:26:50;5.00;74.20
64888;DHT22;51386;53.082;8.816;2022-11-20T01:29:22;4.90;73.80
64888;DHT22;51386;53.082;8.816;2022-11-20T01:31:50;4.90;73.90
64888;DHT22;51386;53.082;8.816;2022-11-20T01:34:20;4.90;73.60
64888;DHT22;51386;53.082;8.816;2022-11-20T01:36:49;4.90;73.60
64888;DHT22;51386;53.082;8.816;2022-11-20T01:39:18;4.90;74.00
64888;DHT22;51386;53.082;8.816;2022-11-20T01:41:48;4.90;73.90
64888;DHT22;51386;53.082;8.816;2022-11-20T01:44:52;4.90;73.70
64888;DHT22;51386;53.082;8.816;2022-11-20T01:47:25;5.00;73.90
64888;DHT22;51386;53.082;8.816;2022-11-20T01:50:01;5.00;73.30
64888;DHT22;51386;53.082;8.816;2022-11-20T01:52:35;5.00;73.10
64888;DHT22;51386;53.082;8.816;2022-11-20T01:55:09;5.00;73.00
64888;DHT22;51386;53.082;8.816;2022-11-20T01:57:40;5.00;72.50
64888;DHT22;51386;53.082;8.816;2022-11-20T02:00:11;5.00;72.50
64888;DHT22;51386;53.082;8.816;2022-11-20T02:02:42;5.00;72.30
64888;DHT22;51386;53.082;8.816;2022-11-20T02:05:18;4.90;72.20
64888;DHT22;51386;53.082;8.816;2022-11-20T02:07:49;4.90;72.20
64888;DHT22;51386;53.082;8.816;2022-11-20T02:10:17;4.90;72.40
64888;DHT22;51386;53.082;8.816;2022-11-20T02:12:45;4.90;72.50
64888;DHT22;51386;53.082;8.816;2022-11-20T02:15:32;4.90;72.60
64888;DHT22;51386;53.082;8.816;2022-11-20T02:17:59;4.80;72.80
64888;DHT22;51386;53.082;8.816;2022-11-20T02:20:27;4.80;72.50
64888;DHT22;51386;53.082;8.816;2022-11-20T02:22:57;4.80;72.30
64888;DHT22;51386;53.082;8.816;2022-11-20T02:25:31;4.90;72.60
64888;DHT22;51386;53.082;8.816;2022-11-20T02:28:02;4.80;72.30
64888;DHT22;51386;53.082;8.816;2022-11-20T02:30:30;4.80;72.10
64888;DHT22;51386;53.082;8.816;2022-11-20T02:32:57;4.80;73.00
64888;DHT22;51386;53.082;8.816;2022-11-20T02:35:42;4.80;72.20
64888;DHT22;51386;53.082;8.816;2022-11-20T02:38:11;4.80;72.20
64888;DHT22;51386;53.082;8.816;2022-11-20T02:40:41;4.80;72.00
64888;DHT22;51386;53.082;8.816;2022-11-20T02:43:08;4.80;71.90
64888;DHT22;51386;53.082;8.816;2022-11-20T02:45:36;4.80;72.00
64888;DHT22;51386;53.082;8.816;2022-11-20T02:48:03;4.70;71.80
64888;DHT22;51386;53.082;8.816;2022-11-20T02:50:32;4.70;72.00
64888;DHT22;51386;53.082;8.816;2022-11-20T02:52:59;4.70;72.30
64888;DHT22;51386;53.082;8.816;2022-11-20T02:55:26;4.70;72.50
64888;DHT22;51386;53.082;8.816;2022-11-20T02:57:54;4.70;72.60
64888;DHT22;51386;53.082;8.816;2022-11-20T03:00:21;4.70;72.70
64888;DHT22;51386;53.082;8.816;2022-11-20T03:02:48;4.70;72.90
64888;DHT22;51386;53.082;8.816;2022-11-20T03:05:15;4.70;72.70
64888;DHT22;51386;53.082;8.816;2022-11-20T03:07:43;4.80;72.70
64888;DHT22;51386;53.082;8.816;2022-11-20T03:10:11;4.80;72.50
64888;DHT22;51386;53.082;8.816;2022-11-20T03:12:38;4.80;72.50
64888;DHT22;51386;53.082;8.816;2022-11-20T03:15:07;4.80;72.30
64888;DHT22;51386;53.082;8.816;2022-11-20T03:17:35;4.90;72.50
64888;DHT22;51386;53.082;8.816;2022-11-20T03:20:03;4.90;72.30
64888;DHT22;51386;53.082;8.816;2022-11-20T03:22:30;4.90;72.90
64888;DHT22;51386;53.082;8.816;2022-11-20T03:24:57;5.00;72.90
64888;DHT22;51386;53.082;8.816;2022-11-20T03:27:24;5.10;73.30
64888;DHT22;51386;53.082;8.816;2022-11-20T03:29:51;5.20;72.40
64888;DHT22;51386;53.082;8.816;2022-11-20T03:32:19;5.30;72.10
64888;DHT22;51386;53.082;8.816;2022-11-20T03:34:46;5.30;71.20
64888;DHT22;51386;53.082;8.816;2022-11-20T03:37:13;5.30;71.00
64888;DHT22;51386;53.082;8.816;2022-11-20T03:39:40;5.40;70.80
64888;DHT22;51386;53.082;8.816;2022-11-20T03:42:08;5.40;70.90
64888;DHT22;51386;53.082;8.816;2022-11-20T03:44:55;5.40;70.40
64888;DHT22;51386;53.082;8.816;2022-11-20T03:47:23;5.40;70.50
64888;DHT22;51386;53.082;8.816;2022-11-20T03:49:51;5.30;70.80
64888;DHT22;51386;53.082;8.816;2022-11-20T03:52:18;5.40;71.30
64888;DHT22;51386;53.082;8.816;2022-11-20T03:54:45;5.40;70.70
64888;DHT22;51386;53.082;8.816;2022-11-20T03:57:12;5.40;70.30
64888;DHT22;51386;53.082;8.816;2022-11-20T03:59:39;5.40;69.90
64888;DHT22;51386;53.082;8.816;2022-11-20T04:02:06;5.40;70.20
64888;DHT22;51386;53.082;8.816;2022-11-20T04:04:34;5.40;70.00
64888;DHT22;51386;53.082;8.816;2022-11-20T04:07:02;5.50;69.70
64888;DHT22;51386;53.082;8.816;2022-11-20T04:09:29;5.50;70.10
64888;DHT22;51386;53.082;8.816;2022-11-20T04:11:56;5.50;70.30
64888;DHT22;51386;53.082;8.816;2022-11-20T04:14:23;5.60;70.40
64888;DHT22;51386;53.082;8.816;2022-11-20T04:16:50;5.60;69.80
64888;DHT22;51386;53.082;8.816;2022-11-20T04:19:17;5.60;69.50
64888;DHT22;51386;53.082;8.816;2022-11-20T04:21:46;5.60;69.60
64888;DHT22;51386;53.082;8.816;2022-11-20T04:24:13;5.60;69.30
64888;DHT22;51386;53.082;8.816;2022-11-20T04:26:41;5.60;69.00
64888;DHT22;51386;53.082;8.816;2022-11-20T04:29:10;5.60;68.80
64888;DHT22;51386;53.082;8.816;2022-11-20T04:31:37;5.60;68.70
64888;DHT22;51386;53.082;8.816;2022-11-20T04:34:05;5.50;69.10
64888;DHT22;51386;53.082;8.816;2022-11-20T04:36:33;5.50;70.00
64888;DHT22;51386;53.082;8.816;2022-11-20T04:39:04;5.60;69.70
64888;DHT22;51386;53.082;8.816;2022-11-20T04:41:33;5.60;68.90
64888;DHT22;51386;53.082;8.816;2022-11-20T04:44:04;5.60;68.50
64888;DHT22;51386;53.082;8.816;2022-11-20T04:46:34;5.60;68.40
64888;DHT22;51386;53.082;8.816;2022-11-20T04:49:03;5.50;68.80
64888;DHT22;51386;53.082;8.816;2022-11-20T04:51:30;5.40;68.90
64888;DHT22;51386;53.082;8.816;2022-11-20T04:53:58;5.40;68.70
64888;DHT22;51386;53.082;8.816;2022-11-20T04:56:26;5.40;68.70
64888;DHT22;51386;53.082;8.816;2022-11-20T04:58:53;5.40;68.60
64888;DHT22;51386;53.082;8.816;2022-11-20T05:01:22;5.30;68.60
64888;DHT22;51386;53.082;8.816;2022-11-20T05:03:50;5.30;68.70
64888;DHT22;51386;53.082;8.816;2022-11-20T05:06:19;5.20;69.10
64888;DHT22;51386;53.082;8.816;2022-11-20T05:08:48;5.20;69.30
64888;DHT22;51386;53.082;8.816;2022-11-20T05:11:17;5.20;69.40
64888;DHT22;51386;53.082;8.816;2022-11-20T05:13:47;5.20;69.90
64888;DHT22;51386;53.082;8.816;2022-11-20T05:16:17;5.20;69.50
64888;DHT22;51386;53.082;8.816;2022-11-20T05:18:46;5.20;70.00
64888;DHT22;51386;53.082;8.816;2022-11-20T05:21:14;5.20;69.90
64888;DHT22;51386;53.082;8.816;2022-11-20T05:23:42;5.30;69.80
64888;DHT22;51386;53.082;8.816;2022-11-20T05:26:13;5.40;69.90
64888;DHT22;51386;53.082;8.816;2022-11-20T05:28:41;5.40;69.00
64888;DHT22;51386;53.082;8.816;2022-11-20T05:31:11;5.40;68.80
64888;DHT22;51386;53.082;8.816;2022-11-20T05:33:40;5.40;68.70
64888;DHT22;51386;53.082;8.816;2022-11-20T05:36:09;5.40;68.50
64888;DHT22;51386;53.082;8.816;2022-11-20T05:38:37;5.40;68.60
64888;DHT22;51386;53.082;8.816;2022-11-20T05:41:05;5.40;68.90
64888;DHT22;51386;53.082;8.816;2022-11-20T05:43:33;5.40;68.70
64888;DHT22;51386;53.082;8.816;2022-11-20T05:46:01;5.40;68.80
64888;DHT22;51386;53.082;8.816;2022-11-20T05:48:30;5.30;68.90
64888;DHT22;51386;53.082;8.816;2022-11-20T05:50:58;5.30;69.20
64888;DHT22;51386;53.082;8.816;2022-11-20T05:53:26;5.30;69.20
64888;DHT22;51386;53.082;8.816;2022-11-20T05:55:57;5.20;69.40
64888;DHT22;51386;53.082;8.816;2022-11-20T05:58:25;5.20;69.60
64888;DHT22;51386;53.082;8.816;2022-11-20T06:00:52;5.10;69.90
64888;DHT22;51386;53.082;8.816;2022-11-20T06:03:20;5.10;69.80
64888;DHT22;51386;53.082;8.816;2022-11-20T06:05:48;5.10;70.30
64888;DHT22;51386;53.082;8.816;2022-11-20T06:08:15;5.10;70.10
64888;DHT22;51386;53.082;8.816;2022-11-20T06:10:42;5.10;70.10
64888;DHT22;51386;53.082;8.816;2022-11-20T06:13:09;5.20;70.80
64888;DHT22;51386;53.082;8.816;2022-11-20T06:15:36;5.20;70.40
64888;DHT22;51386;53.082;8.816;2022-11-20T06:18:04;5.20;70.50
64888;DHT22;51386;53.082;8.816;2022-11-20T06:20:31;5.30;70.30
64888;DHT22;51386;53.082;8.816;2022-11-20T06:22:59;5.30;70.30
64888;DHT22;51386;53.082;8.816;2022-11-20T06:25:26;5.40;70.30
64888;DHT22;51386;53.082;8.816;2022-11-20T06:27:53;5.50;70.00
64888;DHT22;51386;53.082;8.816;2022-11-20T06:30:20;5.50;69.20
64888;DHT22;51386;53.082;8.816;2022-11-20T06:32:47;5.60;69.40
64888;DHT22;51386;53.082;8.816;2022-11-20T06:35:14;5.60;69.40
64888;DHT22;51386;53.082;8.816;2022-11-20T06:37:42;5.60;69.40
64888;DHT22;51386;53.082;8.816;2022-11-20T06:40:11;5.70;69.50
64888;DHT22;51386;53.082;8.816;2022-11-20T06:42:38;5.70;69.10
64888;DHT22;51386;53.082;8.816;2022-11-20T06:45:06;5.70;68.50
64888;DHT22;51386;53.082;8.816;2022-11-20T06:47:34;5.70;68.30
64888;DHT22;51386;53.082;8.816;2022-11-20T06:50:02;5.60;68.30
64888;DHT22;51386;53.082;8.816;2022-11-20T06:52:29;5.50;68.40
64888;DHT22;51386;53.082;8.816;2022-11-20T06:54:56;5.50;68.50
64888;DHT22;51386;53.082;8.816;2022-11-20T06:57:24;5.50;68.90
64888;DHT22;51386;53.082;8.816;2022-11-20T06:59:51;5.40;68.70
64888;DHT22;51386;53.082;8.816;2022-11-20T07:02:18;5.40;69.60
64888;DHT22;51386;53.082;8.816;2022-11-20T07:04:45;5.40;69.30
64888;DHT22;51386;53.082;8.816;2022-11-20T07:07:12;5.40;68.90
64888;DHT22;51386;53.082;8.816;2022-11-20T07:09:39;5.40;68.90
64888;DHT22;51386;53.082;8.816;2022-11-20T07:12:06;5.30;68.50
64888;DHT22;51386;53.082;8.816;2022-11-20T07:14:34;5.30;68.60
64888;DHT22;51386;53.082;8.816;2022-11-20T07:17:01;5.20;68.70
64888;DHT22;51386;53.082;8.816;2022-11-20T07:19:28;5.10;68.90
64888;DHT22;51386;53.082;8.816;2022-11-20T07:21:56;5.10;69.40
64888;DHT22;51386;53.082;8.816;2022-11-20T07:24:23;5.00;69.80
64888;DHT22;51386;53.082;8.816;2022-11-20T07:26:51;5.00;70.20
64888;DHT22;51386;53.082;8.816;2022-11-20T07:29:18;5.00;71.40
64888;DHT22;51386;53.082;8.816;2022-11-20T07:31:46;5.10;70.70
64888;DHT22;51386;53.082;8.816;2022-11-20T07:34:13;5.10;70.50
64888;DHT22;51386;53.082;8.816;2022-11-20T07:36:40;5.10;70.40
64888;DHT22;51386;53.082;8.816;2022-11-20T07:39:07;5.20;70.00
64888;DHT22;51386;53.082;8.816;2022-11-20T07:41:34;5.20;69.80
64888;DHT22;51386;53.082;8.816;2022-11-20T07:44:01;5.20;69.90
64888;DHT22;51386;53.082;8.816;2022-11-20T07:46:38;5.20;69.80
64888;DHT22;51386;53.082;8.816;2022-11-20T07:49:06;5.20;69.70
64888;DHT22;51386;53.082;8.816;2022-11-20T07:51:33;5.20;70.20
64888;DHT22;51386;53.082;8.816;2022-11-20T07:54:00;5.20;70.00
64888;DHT22;51386;53.082;8.816;2022-11-20T07:56:27;5.20;69.90
64888;DHT22;51386;53.082;8.816;2022-11-20T07:58:54;5.30;69.60
64888;DHT22;51386;53.082;8.816;2022-11-20T08:01:21;5.30;69.20
64888;DHT22;51386;53.082;8.816;2022-11-20T08:03:48;5.30;69.60
64888;DHT22;51386;53.082;8.816;2022-11-20T08:06:16;5.30;68.80
64888;DHT22;51386;53.082;8.816;2022-11-20T08:08:45;5.30;68.50
64888;DHT22;51386;53.082;8.816;2022-11-20T08:11:12;5.30;69.00
64888;DHT22;51386;53.082;8.816;2022-11-20T08:13:58;5.30;68.90
64888;DHT22;51386;53.082;8.816;2022-11-20T08:16:40;5.20;68.90
64888;DHT22;51386;53.082;8.816;2022-11-20T08:19:08;5.30;68.90
64888;DHT22;51386;53.082;8.816;2022-11-20T08:21:37;5.30;68.70
64888;DHT22;51386;53.082;8.816;2022-11-20T08:24:05;5.30;68.90
64888;DHT22;51386;53.082;8.816;2022-11-20T08:26:33;5.30;69.20
64888;DHT22;51386;53.082;8.816;2022-11-20T08:29:01;5.30;68.40
64888;DHT22;51386;53.082;8.816;2022-11-20T08:31:28;5.30;68.40
64888;DHT22;51386;53.082;8.816;2022-11-20T08:33:55;5.40;68.50
64888;DHT22;51386;53.082;8.816;2022-11-20T08:36:23;5.40;68.20
64888;DHT22;51386;53.082;8.816;2022-11-20T08:38:54;5.50;67.70
64888;DHT22;51386;53.082;8.816;2022-11-20T08:41:22;5.50;67.50
64888;DHT22;51386;53.082;8.816;2022-11-20T08:43:55;5.50;67.40
64888;DHT22;51386;53.082;8.816;2022-11-20T08:46:23;5.50;68.00
64888;DHT22;51386;53.082;8.816;2022-11-20T08:48:52;5.60;67.80
64888;DHT22;51386;53.082;8.816;2022-11-20T08:51:20;5.60;67.40
64888;DHT22;51386;53.082;8.816;2022-11-20T08:53:47;5.60;67.40
64888;DHT22;51386;53.082;8.816;2022-11-20T08:56:17;5.70;67.50
64888;DHT22;51386;53.082;8.816;2022-11-20T08:58:44;5.70;67.20
64888;DHT22;51386;53.082;8.816;2022-11-20T09:01:31;5.70;66.70
64888;DHT22;51386;53.082;8.816;2022-11-20T09:03:58;5.70;66.70
64888;DHT22;51386;53.082;8.816;2022-11-20T09:06:26;5.70;67.20
64888;DHT22;51386;53.082;8.816;2022-11-20T09:08:53;5.70;66.40
64888;DHT22;51386;53.082;8.816;2022-11-20T09:11:22;5.70;66.60
64888;DHT22;51386;53.082;8.816;2022-11-20T09:13:49;5.60;66.70
64888;DHT22;51386;53.082;8.816;2022-11-20T09:16:18;5.60;66.80
64888;DHT22;51386;53.082;8.816;2022-11-20T09:18:45;5.60;67.20
64888;DHT22;51386;53.082;8.816;2022-11-20T09:21:13;5.60;67.70
64888;DHT22;51386;53.082;8.816;2022-11-20T09:23:40;5.60;67.40
64888;DHT22;51386;53.082;8.816;2022-11-20T09:26:10;5.70;67.50
64888;DHT22;51386;53.082;8.816;2022-11-20T09:28:40;5.70;67.20
64888;DHT22;51386;53.082;8.816;2022-11-20T09:31:22;5.80;68.00
64888;DHT22;51386;53.082;8.816;2022-11-20T09:33:51;5.80;67.10
64888;DHT22;51386;53.082;8.816;2022-11-20T09:36:19;5.80;67.10
64888;DHT22;51386;53.082;8.816;2022-11-20T09:38:46;5.70;67.00
64888;DHT22;51386;53.082;8.816;2022-11-20T09:41:39;5.70;67.30
64888;DHT22;51386;53.082;8.816;2022-11-20T09:44:36;5.70;67.40
64888;DHT22;51386;53.082;8.816;2022-11-20T09:47:25;5.70;67.90
64888;DHT22;51386;53.082;8.816;2022-11-20T09:50:07;5.70;68.20
64888;DHT22;51386;53.082;8.816;2022-11-20T09:52:58;5.80;67.70
64888;DHT22;51386;53.082;8.816;2022-11-20T09:55:37;5.80;67.50
64888;DHT22;51386;53.082;8.816;2022-11-20T09:58:07;5.80;67.50
64888;DHT22;51386;53.082;8.816;2022-11-20T10:00:44;5.70;67.30
64888;DHT22;51386;53.082;8.816;2022-11-20T10:03:18;5.70;67.70
64888;DHT22;51386;53.082;8.816;2022-11-20T10:05:53;5.70;68.20
64888;DHT22;51386;53.082;8.816;2022-11-20T10:08:23;5.70;68.60
64888;DHT22;51386;53.082;8.816;2022-11-20T10:11:01;5.60;68.70
64888;DHT22;51386;53.082;8.816;2022-11-20T10:13:42;5.60;68.90
64888;DHT22;51386;53.082;8.816;2022-11-20T10:16:29;5.60;68.70
64888;DHT22;51386;53.082;8.816;2022-11-20T10:19:21;5.60;69.00
64888;DHT22;51386;53.082;8.816;2022-11-20T10:22:09;5.60;69.80
64888;DHT22;51386;53.082;8.816;2022-11-20T10:24:52;5.50;70.10
64888;DHT22;51386;53.082;8.816;2022-11-20T10:27:50;5.60;71.00
64888;DHT22;51386;53.082;8.816;2022-11-20T10:30:35;5.60;70.90
64888;DHT22;51386;53.082;8.816;2022-11-20T10:33:13;5.70;70.20
64888;DHT22;51386;53.082;8.816;2022-11-20T10:35:45;5.70;70.20
64888;DHT22;51386;53.082;8.816;2022-11-20T10:38:23;5.70;70.20
64888;DHT22;51386;53.082;8.816;2022-11-20T10:40:57;5.70;70.30
64888;DHT22;51386;53.082;8.816;2022-11-20T10:43:47;5.60;70.30
64888;DHT22;51386;53.082;8.816;2022-11-20T10:46:18;5.60;70.70
64888;DHT22;51386;53.082;8.816;2022-11-20T10:48:52;5.50;71.00
64888;DHT22;51386;53.082;8.816;2022-11-20T10:51:30;5.50;71.40
64888;DHT22;51386;53.082;8.816;2022-11-20T10:54:12;5.50;71.20
64888;DHT22;51386;53.082;8.816;2022-11-20T10:56:47;5.50;71.50
64888;DHT22;51386;53.082;8.816;2022-11-20T10:59:38;5.50;71.80
64888;DHT22;51386;53.082;8.816;2022-11-20T11:02:24;5.40;71.70
64888;DHT22;51386;53.082;8.816;2022-11-20T11:05:08;5.40;71.90
64888;DHT22;51386;53.082;8.816;2022-11-20T11:07:41;5.40;72.20
64888;DHT22;51386;53.082;8.816;2022-11-20T11:10:16;5.40;72.40
64888;DHT22;51386;53.082;8.816;2022-11-20T11:12:46;5.40;72.30
64888;DHT22;51386;53.082;8.816;2022-11-20T11:15:26;5.40;72.20
64888;DHT22;51386;53.082;8.816;2022-11-20T11:17:55;5.40;72.20
64888;DHT22;51386;53.082;8.816;2022-11-20T11:20:26;5.40;72.00
64888;DHT22;51386;53.082;8.816;2022-11-20T11:22:54;5.40;71.70
64888;DHT22;51386;53.082;8.816;2022-11-20T11:25:26;5.40;72.60
64888;DHT22;51386;53.082;8.816;2022-11-20T11:27:58;5.40;72.40
64888;DHT22;51386;53.082;8.816;2022-11-20T11:30:28;5.40;72.50
64888;DHT22;51386;53.082;8.816;2022-11-20T11:33:10;5.40;72.50
64888;DHT22;51386;53.082;8.816;2022-11-20T11:35:44;5.50;72.90
64888;DHT22;51386;53.082;8.816;2022-11-20T11:38:21;5.50;73.00
64888;DHT22;51386;53.082;8.816;2022-11-20T11:40:53;5.60;72.50
64888;DHT22;51386;53.082;8.816;2022-11-20T11:43:25;5.70;71.90
64888;DHT22;51386;53.082;8.816;2022-11-20T11:46:30;5.80;71.50
64888;DHT22;51386;53.082;8.816;2022-11-20T11:49:01;5.80;71.00
64888;DHT22;51386;53.082;8.816;2022-11-20T11:51:49;5.90;70.40
64888;DHT22;51386;53.082;8.816;2022-11-20T11:54:28;5.90;69.70
64888;DHT22;51386;53.082;8.816;2022-11-20T11:57:07;5.90;69.10
64888;DHT22;51386;53.082;8.816;2022-11-20T11:59:51;5.90;69.00
64888;DHT22;51386;53.082;8.816;2022-11-20T12:02:36;6.00;69.30
64888;DHT22;51386;53.082;8.816;2022-11-20T12:05:16;6.00;69.10
64888;DHT22;51386;53.082;8.816;2022-11-20T12:07:48;6.10;68.80
64888;DHT22;51386;53.082;8.816;2022-11-20T12:10:23;6.20;68.40
64888;DHT22;51386;53.082;8.816;2022-11-20T12:13:19;6.30;67.50
64888;DHT22;51386;53.082;8.816;2022-11-20T12:15:58;6.30;66.50
64888;DHT22;51386;53.082;8.816;2022-11-20T12:18:27;6.40;66.00
64888;DHT22;51386;53.082;8.816;2022-11-20T12:21:04;6.50;66.30
64888;DHT22;51386;53.082;8.816;2022-11-20T12:23:47;6.50;65.80
64888;DHT22;51386;53.082;8.816;2022-11-20T12:26:43;6.60;65.00
64888;DHT22;51386;53.082;8.816;2022-11-20T12:29:27;6.60;63.90
64888;DHT22;51386;53.082;8.816;2022-11-20T12:32:29;6.60;63.90
64888;DHT22;51386;53.082;8.816;2022-11-20T12:35:25;6.60;63.00
64888;DHT22;51386;53.082;8.816;2022-11-20T12:38:28;6.50;62.50
64888;DHT22;51386;53.082;8.816;2022-11-20T12:41:23;6.40;63.60
64888;DHT22;51386;53.082;8.816;2022-11-20T12:44:26;6.40;64.10
64888;DHT22;51386;53.082;8.816;2022-11-20T12:47:34;6.40;64.70
64888;DHT22;51386;53.082;8.816;2022-11-20T12:50:14;6.30;65.60
64888;DHT22;51386;53.082;8.816;2022-11-20T12:52:54;6.20;65.60
64888;DHT22;51386;53.082;8.816;2022-11-20T12:55:34;6.20;65.70
64888;DHT22;51386;53.082;8.816;2022-11-20T12:58:15;6.20;66.10
64888;DHT22;51386;53.082;8.816;2022-11-20T13:00:56;6.10;66.80
64888;DHT22;51386;53.082;8.816;2022-11-20T13:03:38;6.20;67.30
64888;DHT22;51386;53.082;8.816;2022-11-20T13:06:15;6.20;67.00
64888;DHT22;51386;53.082;8.816;2022-11-20T13:08:48;6.20;66.20
64888;DHT22;51386;53.082;8.816;2022-11-20T13:11:25;6.20;66.20
64888;DHT22;51386;53.082;8.816;2022-11-20T13:14:07;6.20;66.30
64888;DHT22;51386;53.082;8.816;2022-11-20T13:16:47;6.10;65.80
64888;DHT22;51386;53.082;8.816;2022-11-20T13:19:19;6.10;65.90
64888;DHT22;51386;53.082;8.816;2022-11-20T13:21:48;6.00;65.50
64888;DHT22;51386;53.082;8.816;2022-11-20T13:24:23;6.00;66.60
64888;DHT22;51386;53.082;8.816;2022-11-20T13:27:04;6.00;67.00
64888;DHT22;51386;53.082;8.816;2022-11-20T13:29:45;6.00;66.70
64888;DHT22;51386;53.082;8.816;2022-11-20T13:32:16;5.90;66.80
64888;DHT22;51386;53.082;8.816;2022-11-20T13:34:52;5.80;67.10
64888;DHT22;51386;53.082;8.816;2022-11-20T13:37:26;5.90;67.90
64888;DHT22;51386;53.082;8.816;2022-11-20T13:40:12;5.90;67.70
64888;DHT22;51386;53.082;8.816;2022-11-20T13:42:56;5.90;67.90
64888;DHT22;51386;53.082;8.816;2022-11-20T13:45:31;5.90;68.30
64888;DHT22;51386;53.082;8.816;2022-11-20T13:48:03;5.90;68.10
64888;DHT22;51386;53.082;8.816;2022-11-20T13:50:48;5.90;68.10
64888;DHT22;51386;53.082;8.816;2022-11-20T13:53:34;5.90;68.40
64888;DHT22;51386;53.082;8.816;2022-11-20T13:56:39;5.90;68.80
64888;DHT22;51386;53.082;8.816;2022-11-20T13:59:28;5.80;68.10
64888;DHT22;51386;53.082;8.816;2022-11-20T14:02:12;5.70;68.00
64888;DHT22;51386;53.082;8.816;2022-11-20T14:04:45;5.60;68.10
64888;DHT22;51386;53.082;8.816;2022-11-20T14:07:14;5.60;68.90
64888;DHT22;51386;53.082;8.816;2022-11-20T14:09:50;5.60;69.70
64888;DHT22;51386;53.082;8.816;2022-11-20T14:12:20;5.50;69.50
64888;DHT22;51386;53.082;8.816;2022-11-20T14:14:53;5.50;68.90
64888;DHT22;51386;53.082;8.816;2022-11-20T14:17:22;5.50;68.60
64888;DHT22;51386;53.082;8.816;2022-11-20T14:19:58;5.40;68.50
64888;DHT22;51386;53.082;8.816;2022-11-20T14:22:28;5.40;68.60
64888;DHT22;51386;53.082;8.816;2022-11-20T14:25:05;5.30;68.90
64888;DHT22;51386;53.082;8.816;2022-11-20T14:27:43;5.20;69.30
64888;DHT22;51386;53.082;8.816;2022-11-20T14:30:17;5.10;69.30
64888;DHT22;51386;53.082;8.816;2022-11-20T14:32:47;5.00;69.50
64888;DHT22;51386;53.082;8.816;2022-11-20T14:35:19;5.00;69.50
64888;DHT22;51386;53.082;8.816;2022-11-20T14:37:49;4.90;69.70
64888;DHT22;51386;53.082;8.816;2022-11-20T14:40:26;4.80;70.10
64888;DHT22;51386;53.082;8.816;2022-11-20T14:42:56;4.80;70.50
64888;DHT22;51386;53.082;8.816;2022-11-20T14:45:26;4.70;70.50
64888;DHT22;51386;53.082;8.816;2022-11-20T14:47:56;4.70;70.80
64888;DHT22;51386;53.082;8.816;2022-11-20T14:50:27;4.70;70.70
64888;DHT22;51386;53.082;8.816;2022-11-20T14:52:58;4.60;70.70
64888;DHT22;51386;53.082;8.816;2022-11-20T14:55:29;4.60;70.60
64888;DHT22;51386;53.082;8.816;2022-11-20T14:57:59;4.50;70.60
64888;DHT22;51386;53.082;8.816;2022-11-20T15:00:31;4.50;70.70
64888;DHT22;51386;53.082;8.816;2022-11-20T15:02:59;4.40;70.80
64888;DHT22;51386;53.082;8.816;2022-11-20T15:05:44;4.40;71.50
64888;DHT22;51386;53.082;8.816;2022-11-20T15:08:13;4.30;71.40
64888;DHT22;51386;53.082;8.816;2022-11-20T15:10:46;4.30;71.80
64888;DHT22;51386;53.082;8.816;2022-11-20T15:13:17;4.30;71.20
64888;DHT22;51386;53.082;8.816;2022-11-20T15:15:53;4.20;71.10
64888;DHT22;51386;53.082;8.816;2022-11-20T15:18:23;4.20;71.30
64888;DHT22;51386;53.082;8.816;2022-11-20T15:20:54;4.10;71.50
64888;DHT22;51386;53.082;8.816;2022-11-20T15:23:26;4.10;71.80
64888;DHT22;51386;53.082;8.816;2022-11-20T15:25:55;4.00;71.90
64888;DHT22;51386;53.082;8.816;2022-11-20T15:28:27;4.00;72.40
64888;DHT22;51386;53.082;8.816;2022-11-20T15:30:59;4.00;72.30
64888;DHT22;51386;53.082;8.816;2022-11-20T15:33:27;3.90;72.50
64888;DHT22;51386;53.082;8.816;2022-11-20T15:35:54;3.90;72.70
64888;DHT22;51386;53.082;8.816;2022-11-20T15:38:21;3.80;72.80
64888;DHT22;51386;53.082;8.816;2022-11-20T15:40:48;3.80;73.10
64888;DHT22;51386;53.082;8.816;2022-11-20T15:43:15;3.80;73.60
64888;DHT22;51386;53.082;8.816;2022-11-20T15:45:44;3.80;73.30
64888;DHT22;51386;53.082;8.816;2022-11-20T15:48:17;3.90;74.00
64888;DHT22;51386;53.082;8.816;2022-11-20T15:50:51;3.90;74.00
64888;DHT22;51386;53.082;8.816;2022-11-20T15:53:22;4.00;73.90
64888;DHT22;51386;53.082;8.816;2022-11-20T15:55:49;4.00;73.80
64888;DHT22;51386;53.082;8.816;2022-11-20T15:58:16;4.10;73.80
64888;DHT22;51386;53.082;8.816;2022-11-20T16:00:43;4.10;73.50
64888;DHT22;51386;53.082;8.816;2022-11-20T16:03:11;4.10;73.00
64888;DHT22;51386;53.082;8.816;2022-11-20T16:05:41;4.10;73.10
64888;DHT22;51386;53.082;8.816;2022-11-20T16:08:08;4.10;73.30
64888;DHT22;51386;53.082;8.816;2022-11-20T16:10:38;4.10;73.50
64888;DHT22;51386;53.082;8.816;2022-11-20T16:13:12;4.10;73.70
64888;DHT22;51386;53.082;8.816;2022-11-20T16:16:00;4.20;73.30